createdAt,value
2023-02-04T00:00:23.233Z,6.75
2023-02-04T00:02:52.872Z,3.08
2023-02-04T00:05:21.923Z,4.65
2023-02-04T00:07:49.949Z,4.35
2023-02-04T00:10:18.949Z,5.72
2023-02-04T00:12:46.848Z,9.50
2023-02-04T00:15:14.818Z,4.28
2023-02-04T00:17:42.838Z,3.33
2023-02-04T00:20:12.912Z,3.35
2023-02-04T00:22:40.870Z,3.00
2023-02-04T00:25:09.917Z,5.47
2023-02-04T00:27:37.894Z,5.15
2023-02-04T00:30:06.997Z,3.85
2023-02-04T00:32:34.886Z,7.15
2023-02-04T00:35:04.713Z,5.55
2023-02-04T00:37:34.204Z,2.90
2023-02-04T00:40:02.311Z,4.70
2023-02-04T00:42:30.273Z,4.38
2023-02-04T00:44:58.377Z,6.15
2023-02-04T00:47:26.547Z,3.63
2023-02-04T00:49:59.537Z,4.60
2023-02-04T00:52:27.525Z,4.43
2023-02-04T00:54:56.768Z,4.80
2023-02-04T00:57:24.578Z,7.45
2023-02-04T00:59:52.510Z,3.15
2023-02-04T01:02:20.882Z,5.63
2023-02-04T01:04:48.930Z,12.23
2023-02-04T01:07:17.036Z,4.38
2023-02-04T01:09:45.077Z,6.00
2023-02-04T01:12:14.532Z,3.53
2023-02-04T01:14:42.607Z,6.05
2023-02-04T01:17:10.681Z,6.85
2023-02-04T01:19:40.971Z,4.28
2023-02-04T01:22:08.909Z,3.60
2023-02-04T01:24:36.825Z,5.07
2023-02-04T01:27:05.132Z,6.97
2023-02-04T01:29:34.612Z,7.95
2023-02-04T01:32:02.618Z,2.90
2023-02-04T01:34:31.658Z,5.47
2023-02-04T01:36:59.552Z,5.32
2023-02-04T01:39:27.529Z,3.65
2023-02-04T01:41:55.774Z,3.00
2023-02-04T01:44:23.843Z,3.55
2023-02-04T01:46:53.248Z,3.28
2023-02-04T01:49:23.312Z,7.30
2023-02-04T01:51:51.535Z,5.97
2023-02-04T01:54:21.605Z,7.15
2023-02-04T01:56:51.768Z,6.55
2023-02-04T01:59:22.045Z,7.05
2023-02-04T02:01:51.979Z,3.63
2023-02-04T02:04:24.859Z,3.67
2023-02-04T02:06:57.275Z,7.38
2023-02-04T02:09:25.781Z,3.78
2023-02-04T02:11:53.762Z,5.82
2023-02-04T02:14:22.725Z,2.85
2023-02-04T02:16:50.754Z,5.05
2023-02-04T02:19:27.351Z,11.00
2023-02-04T02:22:03.578Z,3.40
2023-02-04T02:24:35.008Z,6.45
2023-02-04T02:27:10.028Z,5.50
2023-02-04T02:32:19.313Z,5.03
2023-02-04T02:34:48.054Z,6.03
2023-02-04T02:37:15.970Z,3.83
2023-02-04T02:39:46.392Z,3.65
2023-02-04T02:42:17.589Z,8.38
2023-02-04T02:44:46.570Z,7.25
2023-02-04T02:47:16.205Z,4.93
2023-02-04T02:49:44.896Z,5.22
2023-02-04T02:52:14.805Z,6.60
2023-02-04T02:54:45.119Z,3.92
2023-02-04T02:57:15.965Z,5.95
2023-02-04T02:59:44.688Z,5.38
2023-02-04T03:02:19.201Z,5.15
2023-02-04T03:04:52.722Z,3.30
2023-02-04T03:07:22.382Z,3.60
2023-02-04T03:09:53.616Z,2.90
2023-02-04T03:12:21.641Z,4.28
2023-02-04T03:14:49.653Z,4.22
2023-02-04T03:17:17.871Z,3.22
2023-02-04T03:19:45.764Z,5.00
2023-02-04T03:22:13.876Z,3.90
2023-02-04T03:24:42.456Z,2.72
2023-02-04T03:27:11.788Z,3.90
2023-02-04T03:29:44.436Z,5.03
2023-02-04T03:32:12.624Z,3.15
2023-02-04T03:34:40.557Z,3.72
2023-02-04T03:37:08.796Z,13.20
2023-02-04T03:39:38.464Z,7.07
2023-02-04T03:42:06.322Z,4.28
2023-02-04T03:44:35.930Z,3.92
2023-02-04T03:47:03.892Z,4.15
2023-02-04T03:49:32.294Z,6.50
2023-02-04T03:52:00.301Z,7.55
2023-02-04T03:54:28.167Z,3.15
2023-02-04T03:56:55.885Z,2.92
2023-02-04T03:59:23.835Z,4.87
2023-02-04T04:01:53.478Z,8.05
2023-02-04T04:04:21.524Z,4.13
2023-02-04T04:06:49.532Z,9.77
2023-02-04T04:09:17.375Z,7.45
2023-02-04T04:11:45.378Z,7.57
2023-02-04T04:14:15.860Z,4.13
2023-02-04T04:16:43.733Z,4.50
2023-02-04T04:19:13.004Z,5.53
2023-02-04T04:21:41.084Z,5.40
2023-02-04T04:24:09.200Z,8.77
2023-02-04T04:26:37.130Z,3.60
2023-02-04T04:29:05.436Z,4.07
2023-02-04T04:31:33.662Z,4.27
2023-02-04T04:34:02.105Z,2.73
2023-02-04T04:36:31.543Z,5.13
2023-02-04T04:38:59.870Z,3.27
2023-02-04T04:41:27.878Z,7.87
2023-02-04T04:43:55.826Z,10.40
2023-02-04T04:46:23.943Z,2.83
2023-02-04T04:48:51.779Z,2.93
2023-02-04T04:51:19.713Z,3.80
2023-02-04T04:53:49.122Z,8.47
2023-02-04T04:56:19.191Z,5.57
2023-02-04T04:58:47.501Z,6.78
2023-02-04T05:01:15.377Z,3.17
2023-02-04T05:03:43.495Z,3.40
2023-02-04T05:06:13.217Z,3.00
2023-02-04T05:08:41.122Z,4.23
2023-02-04T05:11:10.438Z,2.93
2023-02-04T05:13:38.420Z,4.07
2023-02-04T05:16:06.812Z,5.40
2023-02-04T05:18:34.888Z,9.00
2023-02-04T05:21:03.245Z,4.13
2023-02-04T05:23:31.454Z,4.87
2023-02-04T05:25:59.547Z,2.88
2023-02-04T05:28:28.753Z,7.78
2023-02-04T05:30:56.647Z,4.82
2023-02-04T05:33:24.598Z,6.85
2023-02-04T05:35:52.560Z,4.10
2023-02-04T05:38:20.529Z,6.93
2023-02-04T05:40:48.444Z,6.03
2023-02-04T05:43:18.772Z,3.83
2023-02-04T05:45:48.351Z,3.65
2023-02-04T05:48:16.391Z,7.13
2023-02-04T05:50:44.200Z,6.93
2023-02-04T05:53:12.140Z,5.23
2023-02-04T05:55:40.093Z,5.50
2023-02-04T05:58:08.139Z,4.73
2023-02-04T06:00:36.027Z,5.73
2023-02-04T06:03:06.464Z,8.83
2023-02-04T06:05:34.429Z,4.93
2023-02-04T06:08:02.953Z,9.67
2023-02-04T06:10:31.156Z,7.93
2023-02-04T06:12:59.477Z,6.03
2023-02-04T06:15:27.522Z,4.70
2023-02-04T06:17:55.369Z,5.10
2023-02-04T06:20:24.633Z,7.37
2023-02-04T06:22:54.498Z,9.03
2023-02-04T06:25:22.521Z,10.17
2023-02-04T06:27:50.555Z,7.80
2023-02-04T06:30:19.744Z,8.03
2023-02-04T06:32:47.770Z,5.87
2023-02-04T06:35:18.877Z,3.00
2023-02-04T06:37:48.998Z,6.43
2023-02-04T06:40:17.044Z,4.23
2023-02-04T06:42:44.792Z,5.77
2023-02-04T06:45:12.862Z,7.77
2023-02-04T06:47:40.936Z,4.20
2023-02-04T06:50:09.686Z,3.50
2023-02-04T06:52:37.642Z,2.33
2023-02-04T06:55:10.276Z,9.57
2023-02-04T06:57:38.357Z,9.13
2023-02-04T07:00:07.064Z,3.50
2023-02-04T07:02:35.093Z,4.60
2023-02-04T07:05:03.014Z,12.17
2023-02-04T07:07:30.931Z,6.17
2023-02-04T07:09:58.789Z,2.77
2023-02-04T07:12:28.244Z,6.20
2023-02-04T07:14:56.154Z,9.00
2023-02-04T07:17:24.625Z,4.23
2023-02-04T07:19:52.976Z,5.03
2023-02-04T07:22:20.762Z,5.63
2023-02-04T07:24:48.557Z,5.40
2023-02-04T07:27:16.400Z,5.70
2023-02-04T07:29:45.474Z,6.63
2023-02-04T07:32:13.546Z,5.77
2023-02-04T07:34:41.425Z,6.90
2023-02-04T07:37:09.298Z,7.70
2023-02-04T07:39:37.207Z,5.63
2023-02-04T07:42:05.031Z,7.47
2023-02-04T07:44:32.908Z,3.20
2023-02-04T07:47:02.007Z,4.83
2023-02-04T07:49:30.014Z,5.07
2023-02-04T07:51:58.188Z,4.07
2023-02-04T07:54:26.618Z,2.90
2023-02-04T07:56:54.536Z,7.23
2023-02-04T07:59:22.299Z,7.03
2023-02-04T08:01:50.172Z,2.93
2023-02-04T08:04:19.531Z,6.63
2023-02-04T08:06:47.397Z,5.13
2023-02-04T08:09:15.486Z,6.20
2023-02-04T08:11:43.459Z,5.00
2023-02-04T08:14:11.728Z,7.63
2023-02-04T08:16:39.731Z,3.00
2023-02-04T08:19:07.605Z,2.87
2023-02-04T08:21:37.178Z,6.33
2023-02-04T08:24:05.691Z,4.30
2023-02-04T08:26:33.601Z,2.90
2023-02-04T08:29:01.497Z,6.93
2023-02-04T08:31:29.368Z,3.77
2023-02-04T08:33:57.268Z,4.77
2023-02-04T08:36:25.224Z,8.77
2023-02-04T08:38:54.536Z,6.68
2023-02-04T08:41:22.659Z,3.33
2023-02-04T08:43:50.656Z,3.87
2023-02-04T08:46:18.589Z,5.43
2023-02-04T08:48:46.615Z,4.10
2023-02-04T08:51:14.787Z,6.83
2023-02-04T08:53:42.549Z,2.33
2023-02-04T08:56:16.719Z,2.70
2023-02-04T08:58:45.685Z,2.77
2023-02-04T09:01:14.005Z,6.60
2023-02-04T09:03:42.231Z,3.78
2023-02-04T09:06:10.079Z,2.72
2023-02-04T09:08:38.551Z,5.50
2023-02-04T09:11:06.412Z,2.95
2023-02-04T09:13:35.525Z,4.47
2023-02-04T09:16:03.581Z,5.77
2023-02-04T09:18:32.608Z,2.80
2023-02-04T09:21:00.697Z,5.70
2023-02-04T09:23:28.521Z,3.13
2023-02-04T09:25:56.363Z,5.07
2023-02-04T09:28:24.248Z,4.68
2023-02-04T09:30:53.754Z,5.03
2023-02-04T09:33:21.544Z,3.20
2023-02-04T09:35:49.356Z,8.45
2023-02-04T09:38:17.114Z,9.55
2023-02-04T09:40:48.640Z,4.97
2023-02-04T09:43:21.455Z,2.75
2023-02-04T09:45:50.732Z,9.50
2023-02-04T09:48:20.264Z,5.93
2023-02-04T09:50:48.227Z,5.15
2023-02-04T09:53:21.299Z,3.50
2023-02-04T09:55:51.588Z,4.93
2023-02-04T09:58:21.641Z,3.33
2023-02-04T10:00:57.801Z,4.80
2023-02-04T10:03:27.277Z,5.55
2023-02-04T10:05:55.058Z,5.03
2023-02-04T10:08:29.237Z,3.35
2023-02-04T10:10:58.144Z,5.93
2023-02-04T10:13:32.705Z,3.38
2023-02-04T10:16:01.913Z,4.28
2023-02-04T10:18:33.729Z,5.75
2023-02-04T10:21:13.660Z,4.35
2023-02-04T10:23:43.414Z,3.25
2023-02-04T10:26:12.708Z,8.48
2023-02-04T10:28:41.247Z,5.03
2023-02-04T10:31:29.677Z,6.63
2023-02-04T10:34:06.454Z,3.50
2023-02-04T10:36:34.777Z,4.07
2023-02-04T10:39:03.317Z,4.45
2023-02-04T10:41:31.552Z,5.15
2023-02-04T10:44:07.721Z,5.22
2023-02-04T10:46:35.514Z,3.33
2023-02-04T10:49:07.460Z,3.22
2023-02-04T10:51:35.282Z,8.25
2023-02-04T10:54:20.624Z,4.00
2023-02-04T10:56:49.107Z,2.58
2023-02-04T10:59:26.809Z,3.97
2023-02-04T11:01:56.261Z,2.00
2023-02-04T11:04:25.800Z,3.28
2023-02-04T11:06:54.401Z,2.80
2023-02-04T11:09:22.756Z,3.88
2023-02-04T11:11:51.911Z,2.55
2023-02-04T11:14:26.164Z,3.33
2023-02-04T11:16:54.852Z,3.53
2023-02-04T11:19:35.319Z,4.65
2023-02-04T11:22:09.984Z,6.15
2023-02-04T11:24:38.129Z,4.72
2023-02-04T11:27:22.154Z,3.08
2023-02-04T11:29:50.161Z,3.00
2023-02-04T11:32:35.398Z,3.08
2023-02-04T11:35:24.064Z,6.38
2023-02-04T11:37:52.022Z,3.38
2023-02-04T11:40:38.995Z,2.45
2023-02-04T11:43:12.636Z,4.47
2023-02-04T11:45:42.020Z,3.60
2023-02-04T11:48:14.726Z,5.13
2023-02-04T11:50:45.203Z,4.18
2023-02-04T11:53:13.648Z,2.58
2023-02-04T11:55:47.589Z,2.15
2023-02-04T11:58:17.568Z,3.83
2023-02-04T12:00:46.183Z,3.72
2023-02-04T12:03:26.267Z,3.05
2023-02-04T12:05:56.219Z,2.95
2023-02-04T12:08:31.761Z,3.63
2023-02-04T12:11:07.559Z,4.47
2023-02-04T12:13:46.975Z,7.20
2023-02-04T12:16:14.905Z,5.40
2023-02-04T12:18:42.901Z,4.72
2023-02-04T12:21:12.160Z,6.50
2023-02-04T12:23:40.278Z,4.72
2023-02-04T12:26:08.664Z,3.60
2023-02-04T12:28:36.621Z,5.43
2023-02-04T12:31:04.881Z,3.00
2023-02-04T12:33:32.752Z,4.38
2023-02-04T12:36:00.560Z,4.50
2023-02-04T12:38:30.031Z,4.85
2023-02-04T12:40:58.195Z,3.58
2023-02-04T12:43:28.388Z,3.58
2023-02-04T12:45:56.408Z,6.40
2023-02-04T12:48:26.011Z,2.90
2023-02-04T12:50:53.918Z,5.10
2023-02-04T12:53:21.931Z,5.90
2023-02-04T12:55:51.592Z,4.55
2023-02-04T12:58:19.441Z,3.10
2023-02-04T13:00:47.952Z,4.10
2023-02-04T13:03:16.009Z,5.05
2023-02-04T13:05:46.898Z,2.95
2023-02-04T13:08:14.970Z,2.00
2023-02-04T13:10:44.872Z,7.20
2023-02-04T13:13:14.065Z,7.95
2023-02-04T13:15:41.925Z,5.10
2023-02-04T13:18:09.784Z,2.78
2023-02-04T13:20:37.917Z,4.00
2023-02-04T13:23:05.770Z,6.90
2023-02-04T13:25:33.906Z,4.10
2023-02-04T13:28:02.095Z,5.85
2023-02-04T13:30:31.793Z,3.90
2023-02-04T13:32:59.831Z,4.40
2023-02-04T13:35:27.944Z,7.47
2023-02-04T13:37:56.603Z,6.07
2023-02-04T13:40:24.488Z,5.60
2023-02-04T13:42:52.431Z,5.00
2023-02-04T13:45:20.680Z,4.55
2023-02-04T13:47:50.233Z,4.97
2023-02-04T13:50:18.305Z,6.93
2023-02-04T13:52:46.334Z,7.32
2023-02-04T13:55:14.450Z,4.40
2023-02-04T13:57:42.495Z,5.55
2023-02-04T14:00:11.619Z,3.60
2023-02-04T14:02:39.662Z,4.43
2023-02-04T14:05:08.924Z,8.45
2023-02-04T14:07:36.837Z,4.70
2023-02-04T14:10:05.508Z,6.25
2023-02-04T14:12:33.548Z,4.65
2023-02-04T14:15:01.704Z,5.45
2023-02-04T14:17:29.535Z,3.15
2023-02-04T14:19:57.709Z,4.45
2023-02-04T14:22:27.060Z,6.28
2023-02-04T14:24:54.870Z,6.50
2023-02-04T14:27:22.790Z,3.90
2023-02-04T14:29:50.740Z,3.53
2023-02-04T14:32:18.568Z,4.57
2023-02-04T14:34:46.466Z,4.90
2023-02-04T14:37:14.403Z,4.85
2023-02-04T14:39:43.624Z,7.10
2023-02-04T14:42:11.616Z,5.95
2023-02-04T14:44:39.482Z,3.20
2023-02-04T14:47:07.317Z,4.03
2023-02-04T14:49:37.230Z,6.13
2023-02-04T14:52:05.908Z,10.57
2023-02-04T14:54:33.823Z,3.75
2023-02-04T14:57:05.887Z,6.38
2023-02-04T14:59:33.959Z,4.60
2023-02-04T15:02:01.991Z,6.82
2023-02-04T15:04:39.266Z,6.25
2023-02-04T15:07:07.468Z,5.30
2023-02-04T15:09:35.523Z,11.13
2023-02-04T15:12:05.359Z,5.88
2023-02-04T15:14:33.404Z,12.18
2023-02-04T15:17:01.322Z,5.50
2023-02-04T15:19:29.245Z,8.25
2023-02-04T15:21:57.151Z,10.82
2023-02-04T15:24:26.802Z,7.97
2023-02-04T15:26:54.804Z,11.88
2023-02-04T15:29:24.212Z,14.53
2023-02-04T15:31:52.303Z,10.47
2023-02-04T15:34:20.407Z,10.87
2023-02-04T15:36:48.303Z,11.67
2023-02-04T15:39:16.190Z,10.90
2023-02-04T15:41:44.237Z,7.13
2023-02-04T15:44:12.832Z,7.97
2023-02-04T15:46:42.233Z,9.47
2023-02-04T15:49:10.157Z,12.87
2023-02-04T15:51:38.276Z,12.30
2023-02-04T15:54:06.177Z,7.57
2023-02-04T15:56:33.996Z,8.23
2023-02-04T15:59:02.583Z,10.63
2023-02-04T16:01:30.564Z,6.00
2023-02-04T16:04:00.835Z,9.57
2023-02-04T16:06:28.686Z,10.97
2023-02-04T16:08:56.481Z,12.03
2023-02-04T16:11:24.228Z,14.93
2023-02-04T16:13:52.035Z,14.70
2023-02-04T16:16:20.329Z,9.83
2023-02-04T16:18:48.100Z,7.17
2023-02-04T16:21:17.236Z,9.47
2023-02-04T16:23:45.039Z,9.53
2023-02-04T16:26:12.816Z,13.40
2023-02-04T16:28:40.593Z,8.93
2023-02-04T16:31:10.095Z,7.53
2023-02-04T16:33:37.912Z,9.37
2023-02-04T16:36:08.444Z,10.93
2023-02-04T16:38:38.836Z,9.27
2023-02-04T16:41:07.085Z,6.80
2023-02-04T16:43:34.882Z,6.57
2023-02-04T16:46:02.954Z,11.20
2023-02-04T16:48:30.757Z,11.90
2023-02-04T16:50:58.599Z,23.50
2023-02-04T16:53:26.526Z,21.27
2023-02-04T16:55:55.827Z,48.60
2023-02-04T16:58:23.903Z,49.77
2023-02-04T17:00:51.653Z,35.07
2023-02-04T17:03:19.378Z,45.60
2023-02-04T17:05:47.171Z,41.40
2023-02-04T17:08:17.270Z,29.00
2023-02-04T17:11:03.006Z,28.37
2023-02-04T17:13:32.280Z,28.57
2023-02-04T17:16:01.665Z,24.73
2023-02-04T17:18:32.872Z,18.17
2023-02-04T17:21:02.787Z,16.43
2023-02-04T17:23:30.569Z,11.30
2023-02-04T17:25:58.481Z,15.40
2023-02-04T17:28:26.340Z,17.57
2023-02-04T17:30:55.738Z,23.40
2023-02-04T17:33:23.666Z,23.90
2023-02-04T17:35:51.488Z,20.17
2023-02-04T17:38:19.384Z,18.70
2023-02-04T17:40:47.735Z,19.23
2023-02-04T17:43:15.493Z,17.43
2023-02-04T17:45:43.829Z,18.50
2023-02-04T17:48:12.985Z,11.40
2023-02-04T17:50:40.898Z,15.23
2023-02-04T17:53:09.134Z,15.33
2023-02-04T17:55:39.410Z,18.07
2023-02-04T17:58:15.499Z,14.23
2023-02-04T18:00:44.758Z,19.63
2023-02-04T18:03:16.256Z,20.67
2023-02-04T18:05:47.049Z,21.00
2023-02-04T18:08:17.476Z,16.87
2023-02-04T18:10:46.853Z,14.03
2023-02-04T18:13:17.296Z,19.10
2023-02-04T18:15:47.363Z,14.97
2023-02-04T18:18:23.035Z,16.67
2023-02-04T18:20:58.490Z,13.80
2023-02-04T18:23:28.630Z,17.87
2023-02-04T18:26:00.421Z,19.37
2023-02-04T18:28:28.352Z,21.27
2023-02-04T18:31:00.019Z,22.03
2023-02-04T18:33:32.898Z,19.73
2023-02-04T18:36:02.703Z,21.77
2023-02-04T18:38:34.373Z,16.30
2023-02-04T18:41:22.876Z,14.13
2023-02-04T18:44:00.626Z,21.07
2023-02-04T18:46:30.900Z,16.07
2023-02-04T18:49:09.072Z,20.63
2023-02-04T18:51:41.134Z,19.63
2023-02-04T18:54:33.818Z,14.10
2023-02-04T18:57:28.984Z,17.87
2023-02-04T19:00:28.614Z,19.50
2023-02-04T19:02:58.823Z,17.63
2023-02-04T19:05:32.178Z,18.23
2023-02-04T19:08:21.880Z,18.67
2023-02-04T19:10:51.277Z,16.10
2023-02-04T19:13:21.509Z,15.77
2023-02-04T19:15:57.783Z,16.67
2023-02-04T19:18:28.376Z,16.80
2023-02-04T19:21:09.612Z,18.30
2023-02-04T19:23:38.939Z,14.93
2023-02-04T19:26:26.194Z,16.20
2023-02-04T19:28:55.049Z,20.17
2023-02-04T19:31:24.019Z,17.07
2023-02-04T19:33:53.463Z,18.63
2023-02-04T19:36:38.041Z,18.27
2023-02-04T19:39:17.686Z,18.70
2023-02-04T19:41:49.029Z,15.07
2023-02-04T19:44:36.427Z,21.10
2023-02-04T19:47:21.561Z,24.20
2023-02-04T19:49:49.569Z,21.80
2023-02-04T19:52:37.751Z,20.30
2023-02-04T19:55:25.563Z,20.20
2023-02-04T19:57:55.246Z,19.10
2023-02-04T20:00:37.944Z,15.27
2023-02-04T20:03:16.328Z,18.60
2023-02-04T20:05:44.297Z,22.70
2023-02-04T20:08:42.390Z,18.10
2023-02-04T20:11:49.164Z,20.35
2023-02-04T20:14:26.653Z,19.13
2023-02-04T20:16:57.468Z,13.07
2023-02-04T20:19:35.498Z,20.57
2023-02-04T20:22:40.237Z,23.92
2023-02-04T20:25:47.084Z,16.40
2023-02-04T20:28:36.977Z,20.27
2023-02-04T20:31:25.991Z,17.33
2023-02-04T20:33:55.887Z,18.80
2023-02-04T20:36:43.313Z,16.80
2023-02-04T20:39:48.309Z,17.83
2023-02-04T20:42:30.316Z,15.57
2023-02-04T20:45:10.615Z,19.80
2023-02-04T20:47:38.584Z,25.73
2023-02-04T20:50:36.263Z,20.27
2023-02-04T20:53:09.284Z,22.88
2023-02-04T20:55:37.360Z,20.27
2023-02-04T20:58:17.198Z,14.23
2023-02-04T21:00:48.014Z,15.77
2023-02-04T21:03:21.517Z,18.93
2023-02-04T21:05:50.326Z,20.30
2023-02-04T21:08:27.627Z,24.03
2023-02-04T21:10:55.736Z,21.80
2023-02-04T21:13:25.397Z,15.57
2023-02-04T21:15:53.628Z,19.37
2023-02-04T21:18:22.023Z,12.03
2023-02-04T21:20:50.261Z,17.50
2023-02-04T21:23:18.929Z,10.43
2023-02-04T21:25:47.030Z,15.90
2023-02-04T21:28:15.433Z,14.63
2023-02-04T21:30:44.926Z,11.33
2023-02-04T21:33:13.655Z,10.07
2023-02-04T21:35:42.832Z,10.40
2023-02-04T21:38:11.108Z,11.33
2023-02-04T21:40:39.724Z,12.17
2023-02-04T21:43:08.455Z,10.63
2023-02-04T21:45:39.585Z,10.73
2023-02-04T21:48:09.073Z,12.47
2023-02-04T21:50:38.457Z,14.93
2023-02-04T21:53:08.083Z,13.37
2023-02-04T21:55:36.694Z,13.33
2023-02-04T21:58:05.196Z,12.80
2023-02-04T22:00:33.529Z,9.27
2023-02-04T22:03:01.684Z,13.97
2023-02-04T22:05:31.423Z,13.43
2023-02-04T22:07:59.975Z,12.53
2023-02-04T22:10:28.273Z,20.37
2023-02-04T22:12:56.256Z,24.63
2023-02-04T22:15:24.779Z,16.67
2023-02-04T22:17:54.199Z,27.47
2023-02-04T22:20:25.588Z,15.13
2023-02-04T22:22:54.912Z,16.73
2023-02-04T22:25:23.244Z,17.50
2023-02-04T22:27:53.012Z,14.00
2023-02-04T22:30:21.323Z,14.70
2023-02-04T22:32:49.406Z,12.13
2023-02-04T22:35:17.656Z,18.63
2023-02-04T22:37:45.417Z,14.50
2023-02-04T22:40:15.117Z,14.10
2023-02-04T22:42:43.171Z,17.13
2023-02-04T22:45:11.366Z,17.20
2023-02-04T22:47:39.465Z,14.13
2023-02-04T22:50:08.339Z,10.37
2023-02-04T22:52:36.776Z,12.73
2023-02-04T22:55:04.890Z,14.43
2023-02-04T22:57:34.048Z,12.50
2023-02-04T23:00:02.176Z,14.20
2023-02-04T23:02:30.713Z,16.83
2023-02-04T23:04:58.665Z,11.27
2023-02-04T23:07:26.672Z,12.50
2023-02-04T23:09:54.514Z,13.60
2023-02-04T23:12:22.477Z,13.90
2023-02-04T23:14:51.818Z,19.40
2023-02-04T23:17:20.261Z,11.13
2023-02-04T23:19:48.335Z,13.10
2023-02-04T23:22:17.340Z,14.07
2023-02-04T23:24:45.546Z,14.17
2023-02-04T23:27:13.545Z,12.27
2023-02-04T23:29:41.688Z,11.67
2023-02-04T23:32:11.032Z,14.27
2023-02-04T23:34:39.112Z,12.63
2023-02-04T23:37:07.085Z,11.37
2023-02-04T23:39:35.147Z,12.33
2023-02-04T23:42:03.142Z,12.07
2023-02-04T23:44:31.112Z,14.77
2023-02-04T23:46:59.088Z,12.57
2023-02-04T23:49:28.476Z,15.30
2023-02-04T23:51:56.348Z,11.37
2023-02-04T23:54:24.712Z,13.17
2023-02-04T23:56:53.425Z,12.50
2023-02-04T23:59:21.311Z,11.77
